Accueil
METAR-TAF:

METAR-TAF

Aéroports :

Aéroport de Bordeaux-Mérignac

Bordeaux, France

latitude: 44-50N, longitude: 000-42W, altitude: 49 m

Observation

Le bulletin a été fait il y a 26 minutes, à 08:00 UTC
Vent 8 kt de est/sud-est, variant entre est et sud/sud-est
Température 12°C
Humidité 58%
Pression 1020 hPa
Visibilité 10 km ou plus
pas de nuages en-dessous de 1500 mètres et pas de cumulonimbus.

METAR: LFBD 190800Z AUTO 12008KT 100V160 CAVOK 12/04 Q1020 NOSIG

Heure: 10:26 (08:26 UTC)

Prévision

Le bulletin a été fait il y a 3 heures et 26 minutes, à 05:00 UTC
Prévision valable du 19 à 06 UTC au 20 à 12 UTC
Vent 3 kt de direction variable
Visibilité 10 km ou plus
pas de nuages en-dessous de 1500 mètres et pas de cumulonimbus.
Probabilité 30% :
Temporairement
du 19 à 06 UTC au 19 à 07 UTC
Visibilité: 0800 m
Brouillard mince

TAF: LFBD 190500Z 1906/2012 VRB03KT CAVOK TX20/1915Z TN04/1906Z PROB30 TEMPO 1906/1907 0800 MIFG

Observations et prévisions météorologiques de plus de 4000 aéroports (messages METAR et TAF).

Les stations disponibles sont représentées par des disques jaunes et rouges sur la carte.

Passer la souris dessus pour voir le nom de la station.

Cliquer dessus pour voir les observations et prévisions météorologiques.

Pour changer de carte: cliquez sur les boutons verts avec une croix noire pour zoomer, sur le bouton vert avec un tiret pour effectuer un zoom arrière, ou sur les flèches vertes pour les cartes adjacentes.


METAR-TAF: